»·PEaware :: DAL821 KLAX-KDEN

DAL821 :: KLAX-KDEN

FLIGHT INFORMATION

Flight Status: Arrived
Operator:
Delta Air Lines
More flights by this operator :: More flights under this callsign
Pilot: Andre N. (13929)
Aircraft: AIRBUS A330
(A330)
More flights by this aircraft type
Origin: KLAX Los Angeles Intl
United States
Destination: KDEN Denver Intl
United States
More flights between these airports :: More routes between these airports
Route: +ORCKA2 LAS J146 DVC WOLLF CREDE3
File this flight plan on PilotEdge
Remarks:
Altitude:
(Current/Filed)
37,000ft
Speed:
(Current/Filed)
450kts
Departed: 25-Apr-18 10:06 AM
Arrived: 25-Apr-18 12:05 PM
Distance/Time
Traveled:
747nm/1:59
Distance/Time
To Go:
Arrived

Flight Plot

Page will automatically refresh every two minutes.

Flight plan parsing failed; only flown route is shown


Map Options




Map Legend


Flown Route
Filed Route
Departure Airport
Arrival Airport
Navaid (VOR, NDB)
Fix

Horizontal Profiles

Position Reports

Time Latitude Longitude Heading Altitude Ground
Speed
25-Apr-18 09:18 33.939429 -118.410557 82 138ft 0kts
25-Apr-18 09:19 33.939429 -118.410557 82 138ft 0kts
25-Apr-18 09:20 33.939429 -118.410557 82 138ft 0kts
25-Apr-18 09:21 33.939429 -118.410557 82 138ft 0kts
25-Apr-18 09:22 33.939429 -118.410557 82 138ft 0kts
25-Apr-18 09:27 33.939429 -118.410557 0 138ft 0kts
25-Apr-18 09:28 33.939429 -118.410557 82 138ft 0kts
25-Apr-18 09:29 33.939429 -118.410557 82 138ft 0kts
25-Apr-18 09:30 33.939428 -118.410565 82 137ft 0kts
25-Apr-18 09:31 33.939428 -118.410565 82 137ft 0kts
25-Apr-18 09:32 33.939428 -118.410565 82 137ft 0kts
25-Apr-18 09:33 33.939428 -118.410565 82 136ft 0kts
25-Apr-18 09:34 33.939428 -118.410565 82 136ft 0kts
25-Apr-18 09:35 33.939428 -118.410565 82 136ft 0kts
25-Apr-18 09:36 33.939428 -118.410565 82 136ft 0kts
25-Apr-18 09:37 33.939428 -118.410565 82 136ft 0kts
25-Apr-18 09:38 33.939428 -118.410565 82 136ft 0kts
25-Apr-18 09:39 33.939428 -118.410565 82 136ft 0kts
25-Apr-18 09:40 33.939428 -118.410565 82 136ft 0kts
25-Apr-18 09:41 33.939428 -118.410565 82 136ft 0kts
25-Apr-18 09:42 33.939428 -118.410565 82 136ft 0kts
25-Apr-18 09:43 33.939428 -118.410565 82 136ft 0kts
25-Apr-18 09:44 33.939428 -118.410565 82 136ft 0kts
25-Apr-18 09:45 33.939428 -118.410565 82 136ft 0kts
25-Apr-18 09:46 33.939428 -118.410565 82 136ft 0kts
25-Apr-18 09:47 33.939428 -118.410565 82 136ft 0kts
25-Apr-18 09:48 33.939427 -118.410569 82 136ft 0kts
25-Apr-18 09:49 33.939345 -118.411275 88 136ft 2kts
25-Apr-18 09:50 33.939670 -118.411727 176 136ft 2kts
25-Apr-18 09:51 33.939978 -118.411772 173 136ft 0kts
25-Apr-18 09:52 33.939978 -118.411772 173 136ft 0kts
25-Apr-18 09:53 33.939978 -118.411772 173 136ft 0kts
25-Apr-18 09:54 33.939063 -118.411639 173 136ft 7kts
25-Apr-18 09:55 33.937733 -118.410025 84 136ft 10kts
25-Apr-18 09:56 33.938101 -118.406564 83 136ft 11kts
25-Apr-18 09:57 33.938599 -118.401634 83 136ft 16kts
25-Apr-18 09:58 33.939143 -118.396410 83 136ft 15kts
25-Apr-18 09:59 33.939649 -118.391457 83 136ft 14kts
25-Apr-18 10:00 33.939872 -118.389258 83 136ft 10kts
25-Apr-18 10:01 33.940319 -118.384874 83 136ft 12kts
25-Apr-18 10:02 33.939706 -118.383231 170 136ft 11kts
25-Apr-18 10:03 33.939164 -118.383139 173 136ft 0kts
25-Apr-18 10:04 33.938159 -118.382992 173 136ft 8kts
25-Apr-18 10:05 33.935501 -118.400893 263 137ft 144kts
25-Apr-18 10:06 33.927869 -118.452746 248 2106ft 158kts
25-Apr-18 10:07 33.914537 -118.491730 248 3758ft 151kts
25-Apr-18 10:08 33.895025 -118.548396 248 5331ft 198kts
25-Apr-18 10:09 33.872828 -118.613281 245 7687ft 217kts
25-Apr-18 10:10 33.825497 -118.612829 108 9858ft 225kts
25-Apr-18 10:11 33.857059 -118.552621 48 12097ft 245kts
25-Apr-18 10:12 33.909337 -118.477962 53 13320ft 323kts
25-Apr-18 10:13 33.963423 -118.389533 62 16133ft 341kts
25-Apr-18 10:14 34.012438 -118.292223 59 18650ft 359kts
25-Apr-18 10:15 34.069515 -118.191801 58 20921ft 378kts
25-Apr-18 10:16 34.122861 -118.097430 58 22759ft 394kts
25-Apr-18 10:17 34.178255 -117.999153 58 23140ft 397kts
25-Apr-18 10:18 34.234256 -117.899506 58 23147ft 397kts
25-Apr-18 10:19 34.289213 -117.801443 58 23152ft 398kts
25-Apr-18 10:20 34.343018 -117.705172 58 23148ft 398kts
25-Apr-18 10:21 34.403251 -117.603588 56 23146ft 400kts
25-Apr-18 10:22 34.466473 -117.497556 56 23146ft 400kts
25-Apr-18 10:23 34.528949 -117.392445 56 23147ft 400kts
25-Apr-18 10:24 34.593369 -117.283719 57 24633ft 413kts
25-Apr-18 10:25 34.661695 -117.168031 56 26105ft 438kts
25-Apr-18 10:26 34.731782 -117.048965 56 26319ft 491kts
25-Apr-18 10:27 34.811952 -116.912337 55 28095ft 506kts
25-Apr-18 10:28 34.894458 -116.771175 54 29737ft 519kts
25-Apr-18 10:29 34.986711 -116.640026 45 31816ft 514kts
25-Apr-18 10:30 35.082657 -116.513271 45 33677ft 509kts
25-Apr-18 10:31 35.166526 -116.402262 45 35072ft 506kts
25-Apr-18 10:32 35.255095 -116.284641 45 35116ft 504kts
25-Apr-18 10:33 35.349017 -116.159456 45 35117ft 504kts
25-Apr-18 10:34 35.442498 -116.034403 45 35118ft 504kts
25-Apr-18 10:35 35.536093 -115.908731 45 35119ft 504kts
25-Apr-18 10:36 35.629674 -115.782595 45 35143ft 504kts
25-Apr-18 10:37 35.722698 -115.654847 46 35167ft 505kts
25-Apr-18 10:38 35.815424 -115.526960 46 35169ft 505kts
25-Apr-18 10:39 35.907532 -115.399445 46 35161ft 505kts
25-Apr-18 10:40 35.999215 -115.272047 46 35154ft 505kts
25-Apr-18 10:41 36.082977 -115.140488 62 35156ft 506kts
25-Apr-18 10:42 36.131175 -114.992125 67 35127ft 502kts
25-Apr-18 10:43 36.180595 -114.832076 67 35127ft 501kts
25-Apr-18 10:44 36.229886 -114.671246 67 35132ft 501kts
25-Apr-18 10:45 36.278877 -114.510409 67 35137ft 501kts
25-Apr-18 10:46 36.327492 -114.349882 68 35141ft 501kts
25-Apr-18 10:47 36.373551 -114.196949 68 35143ft 501kts
25-Apr-18 10:48 36.422129 -114.034750 68 35206ft 501kts
25-Apr-18 10:49 36.470280 -113.873049 68 35229ft 501kts
25-Apr-18 10:50 36.518149 -113.711363 68 35230ft 501kts
25-Apr-18 10:51 36.565554 -113.550311 68 35231ft 501kts
25-Apr-18 10:52 36.613130 -113.387731 68 35270ft 501kts
25-Apr-18 10:53 36.654595 -113.245108 69 35309ft 501kts
25-Apr-18 10:54 36.701330 -113.083390 69 35310ft 501kts
25-Apr-18 10:55 36.748185 -112.920226 68 35311ft 502kts
25-Apr-18 10:56 36.794747 -112.757164 67 35311ft 501kts
25-Apr-18 10:57 36.841114 -112.593867 67 35313ft 501kts
25-Apr-18 10:58 36.887331 -112.430029 67 35314ft 500kts
25-Apr-18 10:59 36.927607 -112.286277 68 35307ft 501kts
25-Apr-18 11:00 36.973200 -112.123034 68 35305ft 499kts
25-Apr-18 11:01 37.018451 -111.960016 68 35318ft 494kts
25-Apr-18 11:02 37.062800 -111.799272 68 35301ft 490kts
25-Apr-18 11:03 37.105721 -111.642762 69 35303ft 486kts
25-Apr-18 11:04 37.147664 -111.488923 69 35304ft 484kts
25-Apr-18 11:05 37.188549 -111.338082 69 35303ft 484kts
25-Apr-18 11:06 37.225883 -111.199538 70 35301ft 484kts
25-Apr-18 11:07 37.264574 -111.045711 71 35302ft 487kts
25-Apr-18 11:08 37.302476 -110.882595 71 35303ft 489kts
25-Apr-18 11:09 37.338890 -110.718269 71 35304ft 489kts
25-Apr-18 11:10 37.375389 -110.553851 70 35324ft 489kts
25-Apr-18 11:11 37.411874 -110.389923 70 35374ft 489kts
25-Apr-18 11:12 37.449518 -110.234283 62 35369ft 486kts
25-Apr-18 11:13 37.512964 -110.085378 65 35366ft 487kts
25-Apr-18 11:14 37.559003 -109.925020 68 35366ft 488kts
25-Apr-18 11:15 37.601135 -109.762443 69 35366ft 488kts
25-Apr-18 11:16 37.642450 -109.599543 69 35367ft 489kts
25-Apr-18 11:17 37.683469 -109.436410 69 35367ft 489kts
25-Apr-18 11:18 37.718580 -109.295884 70 35363ft 489kts
25-Apr-18 11:19 37.744400 -109.192021 70 35364ft 489kts
25-Apr-18 11:20 37.784875 -109.028164 68 35363ft 489kts
25-Apr-18 11:21 37.837203 -108.873664 52 35351ft 475kts
25-Apr-18 11:22 37.906545 -108.731519 52 35348ft 475kts
25-Apr-18 11:23 37.975647 -108.589553 52 35354ft 475kts
25-Apr-18 11:24 38.042424 -108.451816 52 35356ft 475kts
25-Apr-18 11:25 38.109406 -108.313084 53 35376ft 476kts
25-Apr-18 11:26 38.172080 -108.182733 53 35378ft 476kts
25-Apr-18 11:27 38.239684 -108.041538 53 35374ft 475kts
25-Apr-18 11:28 38.305145 -107.904234 53 35377ft 475kts
25-Apr-18 11:29 38.373249 -107.760761 53 35377ft 475kts
25-Apr-18 11:30 38.441170 -107.617033 53 35377ft 475kts
25-Apr-18 11:31 38.507327 -107.471066 54 35381ft 476kts
25-Apr-18 11:32 38.571328 -107.328247 55 35393ft 477kts
25-Apr-18 11:33 38.635270 -107.184926 55 35400ft 477kts
25-Apr-18 11:34 38.700817 -107.037337 55 35400ft 477kts
25-Apr-18 11:35 38.765630 -106.890703 54 35397ft 475kts
25-Apr-18 11:36 38.829389 -106.745808 54 35386ft 474kts
25-Apr-18 11:37 38.895472 -106.599228 53 34773ft 475kts
25-Apr-18 11:38 38.962261 -106.454944 53 32713ft 474kts
25-Apr-18 11:39 39.025451 -106.317422 54 30705ft 468kts
25-Apr-18 11:40 39.085669 -106.184562 55 28711ft 458kts
25-Apr-18 11:41 39.146864 -106.047401 55 26663ft 449kts
25-Apr-18 11:42 39.207554 -105.909864 56 24579ft 437kts
25-Apr-18 11:43 39.266625 -105.775420 57 22491ft 426kts
25-Apr-18 11:44 39.323865 -105.644686 57 20411ft 414kts
25-Apr-18 11:45 39.374770 -105.528328 57 18483ft 344kts
25-Apr-18 11:46 39.424501 -105.425787 52 17365ft 332kts
25-Apr-18 11:47 39.475087 -105.330051 53 16592ft 328kts
25-Apr-18 11:48 39.533310 -105.242374 39 16031ft 322kts
25-Apr-18 11:49 39.589554 -105.157020 79 16041ft 329kts
25-Apr-18 11:50 39.624541 -105.048917 56 15452ft 327kts
25-Apr-18 11:51 39.672430 -104.952871 53 14250ft 309kts
25-Apr-18 11:52 39.717157 -104.865680 50 13289ft 266kts
25-Apr-18 11:53 39.779628 -104.842139 1 12403ft 238kts
25-Apr-18 11:54 39.845901 -104.841106 357 11563ft 238kts
25-Apr-18 11:55 39.911043 -104.843186 357 10508ft 231kts
25-Apr-18 11:56 39.974029 -104.844246 357 9495ft 224kts
25-Apr-18 11:57 40.035674 -104.844424 357 8528ft 217kts
25-Apr-18 11:58 40.065140 -104.790083 87 7576ft 214kts
25-Apr-18 11:59 40.061229 -104.716351 130 7043ft 197kts
25-Apr-18 12:00 40.019773 -104.683429 189 7072ft 159kts
25-Apr-18 12:01 39.975323 -104.686439 184 6838ft 161kts
25-Apr-18 12:02 39.929321 -104.686543 180 6098ft 165kts
25-Apr-18 12:03 39.885187 -104.686897 182 5443ft 120kts
25-Apr-18 12:04 39.868252 -104.686225 97 5442ft 8kts
25-Apr-18 12:05 39.868226 -104.685704 94 5442ft 0kts
25-Apr-18 12:06 39.866670 -104.684974 180 5443ft 9kts
25-Apr-18 12:07 39.863443 -104.685016 180 5442ft 15kts
25-Apr-18 12:08 39.858187 -104.685078 180 5442ft 22kts
25-Apr-18 12:09 39.855963 -104.682147 90 5443ft 18kts
25-Apr-18 12:10 39.855298 -104.677244 172 5443ft 6kts
25-Apr-18 12:11 39.854518 -104.677135 177 5443ft 0kts
25-Apr-18 12:12 39.854518 -104.677135 177 5443ft 0kts
25-Apr-18 12:13 39.854518 -104.677135 177 5443ft 0kts
25-Apr-18 12:14 39.854518 -104.677135 177 5443ft 0kts
25-Apr-18 12:15 39.854518 -104.677135 177 5443ft 0kts
25-Apr-18 12:16 39.854518 -104.677135 177 5443ft 0kts
25-Apr-18 12:17 39.854518 -104.677135 177 5443ft 0kts
25-Apr-18 12:18 39.854518 -104.677135 177 5443ft 0kts

Navigation Log

Ident Type
Flight plan parsing failed, navigation log unavailable